Wednesday, January 17, 2018, 7:12 PM EST
Back to Local

KBOS, Boston Logan International

Location: Boston, MA, United States Lat: 42.367
Local Time: 7:12 PM EST ( 0:12 GMT) Lon: -71.017
Time Zone: US/Eastern Elev: 19 ft

Show me the last for .
Show Decoded

2018-01-17 18:54 METAR KBOS 172354Z 32007KT 4SM R04R/6000VP6000FT -SN BR SCT006 OVC019 00/M01
                 A3010 RMK AO2 SNE2259B18 SLP192 P0000 60002 T00001006 10011 20000 56010 =
2018-01-17 18:09 METAR KBOS 172309Z 36006KT 4SM BR FEW006 BKN019 OVC031 00/M01 A3010 RMK AO2
                 SNE2259 P0000 T00001006 =
2018-01-17 17:54 METAR KBOS 172254Z 35006KT 2 1/2SM -SN BR FEW004 BKN007 OVC011 00/M01 A3010 RMK
                 AO2 SLP193 P0000 T00001006 =
2018-01-17 17:22 METAR KBOS 172222Z 34005KT 2 1/2SM -SN BR FEW004 OVC007 01/00 A3011 RMK AO2
                 P0000 T00060000 =
2018-01-17 16:54 METAR KBOS 172154Z 36006KT 5SM -SN BR BKN007 OVC012 01/M01 A3011 RMK AO2
                 DZB31E52SNE09B52 SLP194 PCPN VRY LGT P0000 T00061006 =
2018-01-17 15:54 METAR KBOS 172054Z 01006KT 5SM -SN BR BKN007 OVC013 01/M01 A3013 RMK AO2 SLP201
                 PCPN VRY LGT P0000 60002 T00061006 55010 =
2018-01-17 15:17 METAR KBOS 172017Z 01006KT 4SM -SN BR BKN007 OVC013 01/M01 A3013 RMK AO2 P0000
                 T00061006 =
2018-01-17 14:54 METAR KBOS 171954Z 36005KT 4SM -SN BR SCT007 BKN013 OVC021 01/00 A3013 RMK AO2
                 SLP201 P0001 T00060000 =
2018-01-17 14:17 METAR KBOS 171917Z 36008KT 3SM -SN BR SCT006 OVC011 01/00 A3014 RMK AO2 P0000
                 T00060000 =
2018-01-17 13:54 METAR KBOS 171854Z 01008KT 2SM -SN BR OVC006 01/00 A3013 RMK AO2 SLP203 P0001
                 T00060000 =
2018-01-17 13:35 METAR KBOS 171835Z 36009KT 2 1/2SM R04R/6000VP6000FT -SN BR OVC006 01/00 A3015
                 RMK AO2 P0001 T00060000 =
2018-01-17 13:27 METAR KBOS 171827Z 36008KT 3SM -SN BR OVC004 01/00 A3016 RMK AO2 P0001 T00060000
                 =
2018-01-17 12:54 METAR KBOS 171754Z 01006KT 1 3/4SM -SN BR OVC003 01/01 A3016 RMK AO2 SLP211
                 P0000 60015 T00060006 10011 20000 58042 =
2018-01-17 12:37 METAR KBOS 171737Z 01006KT 1 1/4SM R04R/3500VP6000FT -SN BR OVC003 01/01 A3018
                 RMK AO2 P0000 T00060006 =
2018-01-17 12:07 METAR KBOS 171707Z COR 35005KT 1/2SM R04R/3000V5000FT SN FG OVC003 01/01 A3019
                 RMK AO2 P0000 T00060006 =
2018-01-17 11:54 METAR KBOS 171654Z 01006KT 1 1/2SM R04R/4000VP6000FT -SN BR OVC003 01/00 A3020
                 RMK AO2 SLP227 P0001 T00060000 =
2018-01-17 11:03 METAR KBOS 171603Z 04005KT 3SM -SN BR OVC004 01/01 A3025 RMK AO2 P0000 T00060006
                 =
2018-01-17 10:54 METAR KBOS 171554Z 05004KT 2SM R04R/4500VP6000FT -SN BR OVC005 01/01 A3025 RMK
                 AO2 SLP243 P0002 T00060006 =
2018-01-17 09:54 METAR KBOS 171454Z 06005KT 1SM R04R/5000V6000FT -SN BR SCT003 OVC007 01/00 A3028
                 RMK A02 SLP253 P0005 60012 T00060000 56012 =
2018-01-17 09:14 METAR KBOS 171414Z 06005KT 1SM R04R/3500V5500FT -SN BR VV005 00/00 A3029 RMK AO2
                 P0001 T00000000 =
2018-01-17 09:06 METAR KBOS 171406Z 06004KT 1/4SM R04R/4500V6000FT -SN BR VV005 00/00 A3029 RMK
                 AO2 SFC VIS 1 P0001 T00000000 =
2018-01-17 08:54 METAR KBOS 171354Z 07004KT 1/4SM R04R/4500VP6000FT -SN BR OVC004 00/00 A3029 RMK
                 AO2 SFC VIS 1 1/4 SLP257 P0004 T00000000 =
2018-01-17 08:23 METAR KBOS 171323Z 06004KT 1/4SM R04R/4000V5000FT -SN BR OVC004 00/00 A3030 RMK
                 AO2 SFC VIS 1 P0002 T00000000 =
2018-01-17 08:14 METAR KBOS 171314Z 06004KT 1/4SM R04R/3000V5000FT -SN BR VV005 00/00 A3030 RMK
                 AO2 SFC VIS 3/4 P0002 T00000000 =
2018-01-17 07:54 METAR KBOS 171254Z 05004KT 1SM R04R/4000V6000FT -SN BR SCT003 OVC009 00/00 A3030
                 RMK AO2 SLP259 P0003 T00000000 =
2018-01-17 07:09 METAR KBOS 171209Z 06004KT 1 1/4SM -SN BR BKN003 OVC017 00/M01 A3031 RMK AO2
                 P0001 T00001006 =
2018-01-17 06:54 METAR KBOS 171154Z 06003KT 1SM R04R/5500VP6000FT -SN BR FEW005 OVC019 00/M01
                 A3032 RMK AO2 SLP265 P0003 60003 70003 T00001006 10006 20000 56012 =
2018-01-17 06:41 METAR KBOS 171141Z 00000KT 1 1/4SM -SN BR FEW005 OVC018 00/M01 A3033 RMK AO2
                 P0002 T00001006 =
2018-01-17 06:20 METAR KBOS 171120Z 06004KT 1 1/4SM -SN BR OVC020 00/M01 A3032 RMK AO2 P0001
                 T00001011 =
2018-01-17 05:54 METAR KBOS 171054Z 09003KT 2SM -SN BR SCT009 SCT015 OVC022 00/M02 A3033 RMK AO2
                 SNB36 SLP271 P0000 T00001017 =
2018-01-17 05:49 METAR KBOS 171049Z 09004KT 3SM -SN BR BKN009 BKN015 OVC024 00/M02 A3033 RMK AO2
                 SNB36 P0000 =
2018-01-17 05:41 METAR KBOS 171041Z 08003KT 6SM -SN BR BKN010 BKN015 OVC031 00/M02 A3034 RMK AO2
                 SNB36 P0000 T00001022 =
2018-01-17 04:54 METAR KBOS 170954Z 15004KT 10SM OVC033 00/M02 A3035 RMK AO2 SLP277 T00001022 =
2018-01-17 03:54 METAR KBOS 170854Z 15005KT 10SM OVC035 00/M03 A3035 RMK AO2 SLP278 T00001028
                 58012 =
2018-01-17 02:54 METAR KBOS 170754Z 16005KT 10SM OVC034 00/M02 A3038 RMK AO2 SLP287 T00001022 =
2018-01-17 01:54 METAR KBOS 170654Z 16003KT 10SM OVC031 00/M02 A3039 RMK AO2 SLP289 T00001022 =
2018-01-17 00:54 METAR KBOS 170554Z 18005KT 10SM BKN035 OVC070 00/M02 A3039 RMK AO2 SLP289
                 T00001022 10000 21006 56018 =
2018-01-16 23:54 METAR KBOS 170454Z 17005KT 10SM FEW034 OVC070 M01/M03 A3040 RMK AO2 SLP293
                 T10061028 400061067 =
2018-01-16 22:54 METAR KBOS 170354Z 16006KT 10SM SCT033 OVC075 00/M03 A3042 RMK AO2 SLP300
                 T00001028 =
2018-01-16 21:54 METAR KBOS 170254Z 16006KT 10SM FEW012 BKN037 OVC120 00/M03 A3044 RMK AO2 SLP307
                 T00001028 58007 =
2018-01-16 20:54 METAR KBOS 170154Z 14006KT 10SM FEW014 SCT032 OVC042 00/M03 A3045 RMK AO2 SLP311
                 T00001028 =
2018-01-16 19:54 METAR KBOS 170054Z 15005KT 10SM FEW013 BKN032 OVC080 00/M03 A3046 RMK AO2 SLP314
                 T00001033 =

Support USWX by starting your Amazon purchase here.